Miedwie — C6XP5 — position and weather

sailwx.info

Track history (hours):
 
Tides and Currents Weather Stations Pressure Air Temp Water Temp Dewpoint Dewpoint Depression Visibility Wind Speed Wind Dir Waves Ship Positions

Miedwie

Last reported at 2017-Apr-27 11:01 UTC. Time now 2017-Apr-27 12:47 UTC.
Position N 54°45' E 012°47'.

Length 190 m; draft 8.9 m.

Type: Cargo ship. MMSI: 311018300.

Date/timePositionNaut miles runAvg speedWind from/ knotsBaromVisibWave heightAir tempDewpointWater temp
2017-Apr-27 11:01N 54°45' E 012°47'010.6
2017-Apr-27 11:01N 54°45' E 012°47'611.3
2017-Apr-27 10:31N 54°42' E 012°38'1711.3
2017-Apr-27 09:01N 54°31' E 012°17'011.4
2017-Apr-27 09:00N 54°31' E 012°17'611.4
2017-Apr-27 08:31N 54°26' E 012°12'510.5
2017-Apr-27 08:00N 54°24' E 012°04'611.6
2017-Apr-27 07:30N 54°25' E 011°54'611.3
2017-Apr-27 06:56N 54°26' E 011°43'511.9
2017-Apr-27 06:30N 54°28' E 011°35'611.7
2017-Apr-27 06:00N 54°31' E 011°26'611.7
2017-Apr-27 05:30N 54°33' E 011°17'611.4
2017-Apr-27 05:00N 54°36' E 011°08'611.5
2017-Apr-27 04:30N 54°39' E 010°60'611.1
2017-Apr-27 04:00N 54°42' E 010°52'611.2
2017-Apr-27 03:30N 54°48' E 010°52'510.9
2017-Apr-27 03:01N 54°53' E 010°53'510.7
2017-Apr-27 02:30N 54°58' E 010°58'510.7
2017-Apr-27 02:00N 55°03' E 011°02'711.2
2017-Apr-27 01:21N 55°10' E 011°03'11310.1
2017-Apr-26 14:10N 57°01' E 011°42'811.5
2017-Apr-26 13:30N 57°08' E 011°37'611.5
2017-Apr-26 13:00N 57°14' E 011°34'611.7
2017-Apr-26 12:30N 57°19' E 011°30'611.6
2017-Apr-26 12:00N 57°24' E 011°27'611.1
2017-Apr-26 11:30N 57°29' E 011°22'611.3
2017-Apr-26 11:00N 57°33' E 011°14'611.4
2017-Apr-26 10:30N 57°37' E 011°06'611.4
2017-Apr-26 10:00N 57°41' E 010°58'611.2
2017-Apr-26 09:25N 57°45' E 010°49'410.3
2017-Apr-26 09:00N 57°47' E 010°42'37610.7
2017-Apr-24 21:50N 53°04' E 003°26'510.5
2017-Apr-24 21:21N 52°59' E 003°23'410.5
2017-Apr-24 20:59N 52°55' E 003°21'8910.6
2017-Apr-24 12:35N 51°35' E 002°20'113.2
2017-Apr-24 12:29N 51°34' E 002°18'613.3
2017-Apr-24 12:00N 51°29' E 002°12'612.4
2017-Apr-24 11:30N 51°23' E 002°09'612.7
2017-Apr-24 11:00N 51°17' E 002°07'612.2
2017-Apr-24 10:30N 51°13' E 001°60'713.7
2017-Apr-24 10:00N 51°09' E 001°50'713.9
2017-Apr-24 09:30N 51°05' E 001°42'714.0
2017-Apr-24 09:01N 50°59' E 001°35'713.4
2017-Apr-24 08:31N 50°54' E 001°28'5711.2
2017-Apr-24 03:27N 50°22' E 000°15'510.8
2017-Apr-24 03:01N 50°21' E 000°08'510.5
2017-Apr-24 02:31N 50°19' W 000°00'510.3
2017-Apr-24 02:01N 50°18' W 000°08'510.1
2017-Apr-24 01:31N 50°17' W 000°15'5 9.7
2017-Apr-24 01:01N 50°15' W 000°23'5 9.5
2017-Apr-24 00:31N 50°14' W 000°30'5 9.4
2017-Apr-24 00:00N 50°13' W 000°37'5 9.2
2017-Apr-23 23:30N 50°12' W 000°44'5 9.3
2017-Apr-23 23:00N 50°11' W 000°51'7 9.7
2017-Apr-23 22:18N 50°09' W 001°01'410.1
2017-Apr-23 21:54N 50°08' W 001°07'610.8
2017-Apr-23 21:19N 50°06' W 001°17'3212.7
2017-Apr-23 18:50N 49°59' W 002°05'614.0
2017-Apr-23 18:26N 49°57' W 002°13'614.0
2017-Apr-23 18:01N 49°56' W 002°22'813.8
2017-Apr-23 17:26N 49°54' W 002°34'613.4
2017-Apr-23 16:58N 49°52' W 002°43'613.1
2017-Apr-23 16:31N 49°50' W 002°52'1112.8
2017-Apr-23 15:41N 49°47' W 003°08'212.6
2017-Apr-23 15:29N 49°46' W 003°11'612.4
2017-Apr-23 15:01N 49°45' W 003°20'1212.3
2017-Apr-23 14:00N 49°39' W 003°37'612.1
2017-Apr-23 13:31N 49°35' W 003°45'611.9
2017-Apr-23 13:01N 49°32' W 003°52'611.6
2017-Apr-23 12:30N 49°29' W 003°59'611.5
2017-Apr-23 11:59N 49°25' W 004°07'611.4
2017-Apr-23 11:29N 49°22' W 004°15'611.2
2017-Apr-23 10:56N 49°19' W 004°22'4610.3
2017-Apr-23 06:31N 48°53' W 005°21'210.1
2017-Apr-23 06:20N 48°53' W 005°23'310.1
2017-Apr-23 06:00N 48°51' W 005°27'510.2
2017-Apr-23 05:28N 48°48' W 005°34'2310.4
2017-Apr-23 03:16N 48°28' W 005°51'19110.8
2017-Apr-22 09:39N 45°39' W 008°00'36410.4
2017-Apr-20 22:36N 39°44' W 009°51'111.3
2017-Apr-20 22:31N 39°43' W 009°51'2211.0
2017-Apr-20 20:32N 39°21' W 009°51'011.2
2017-Apr-20 20:30N 39°21' W 009°51'510.7
2017-Apr-20 20:01N 39°15' W 009°51'510.6
2017-Apr-20 19:31N 39°10' W 009°52'510.7
2017-Apr-20 19:00N 39°05' W 009°52'510.6
2017-Apr-20 18:30N 38°59' W 009°52'510.7
2017-Apr-20 18:00N 38°54' W 009°52'510.8
2017-Apr-20 17:31N 38°49' W 009°52'510.8
2017-Apr-20 17:01N 38°43' W 009°52'510.7
2017-Apr-20 16:30N 38°38' W 009°50'510.8
2017-Apr-20 16:01N 38°33' W 009°48'611.1
2017-Apr-20 15:31N 38°28' W 009°47'611.6
2017-Apr-20 15:01N 38°22' W 009°45'612.0
2017-Apr-20 14:31N 38°16' W 009°44'1212.0
2017-Apr-20 13:31N 38°04' W 009°40'711.6
2017-Apr-20 12:57N 37°58' W 009°38'1711.7
2017-Apr-20 11:27N 37°41' W 009°34'511.8
2017-Apr-20 11:00N 37°36' W 009°33'  
2017-Apr-17 15:33N 33°39' W 007°34'1 7.1
2017-Apr-17 15:21N 33°41' W 007°35'2 6.3
2017-Apr-17 14:59N 33°41' W 007°37'0 0.6
2017-Apr-17 14:18N 33°41' W 007°38'0 0.0
2017-Apr-17 13:27N 33°41' W 007°38'0 0.0
2017-Apr-17 12:57N 33°41' W 007°38'0 0.0
2017-Apr-17 12:30N 33°41' W 007°38'0 0.0
2017-Apr-17 11:57N 33°41' W 007°38'0 0.0
2017-Apr-17 11:27N 33°41' W 007°38'  
Track history (hours):
 
Tides and Currents Weather Stations Pressure Air Temp Water Temp Dewpoint Dewpoint Depression Visibility Wind Speed Wind Dir Waves Ship Positions

Miedwie

Last reported at 2017-Apr-27 11:01 UTC. Time now 2017-Apr-27 12:47 UTC.
Position N 54°45' E 012°47'.

Length 190 m; draft 8.9 m.

Type: Cargo ship. MMSI: 311018300.

Date/timePositionNaut miles runAvg speedWind from/ knotsBaromVisibWave heightAir tempDewpointWater temp
2017-Apr-27 11:01N 54°45' E 012°47'010.6
2017-Apr-27 11:01N 54°45' E 012°47'611.3
2017-Apr-27 10:31N 54°42' E 012°38'1711.3
2017-Apr-27 09:01N 54°31' E 012°17'011.4
2017-Apr-27 09:00N 54°31' E 012°17'611.4
2017-Apr-27 08:31N 54°26' E 012°12'510.5
2017-Apr-27 08:00N 54°24' E 012°04'611.6
2017-Apr-27 07:30N 54°25' E 011°54'611.3
2017-Apr-27 06:56N 54°26' E 011°43'511.9
2017-Apr-27 06:30N 54°28' E 011°35'611.7
2017-Apr-27 06:00N 54°31' E 011°26'611.7
2017-Apr-27 05:30N 54°33' E 011°17'611.4
2017-Apr-27 05:00N 54°36' E 011°08'611.5
2017-Apr-27 04:30N 54°39' E 010°60'611.1
2017-Apr-27 04:00N 54°42' E 010°52'611.2
2017-Apr-27 03:30N 54°48' E 010°52'510.9
2017-Apr-27 03:01N 54°53' E 010°53'510.7
2017-Apr-27 02:30N 54°58' E 010°58'510.7
2017-Apr-27 02:00N 55°03' E 011°02'711.2
2017-Apr-27 01:21N 55°10' E 011°03'11310.1
2017-Apr-26 14:10N 57°01' E 011°42'811.5
2017-Apr-26 13:30N 57°08' E 011°37'611.5
2017-Apr-26 13:00N 57°14' E 011°34'611.7
2017-Apr-26 12:30N 57°19' E 011°30'611.6
2017-Apr-26 12:00N 57°24' E 011°27'611.1
2017-Apr-26 11:30N 57°29' E 011°22'611.3
2017-Apr-26 11:00N 57°33' E 011°14'611.4
2017-Apr-26 10:30N 57°37' E 011°06'611.4
2017-Apr-26 10:00N 57°41' E 010°58'611.2
2017-Apr-26 09:25N 57°45' E 010°49'410.3
2017-Apr-26 09:00N 57°47' E 010°42'37610.7
2017-Apr-24 21:50N 53°04' E 003°26'510.5
2017-Apr-24 21:21N 52°59' E 003°23'410.5
2017-Apr-24 20:59N 52°55' E 003°21'8910.6
2017-Apr-24 12:35N 51°35' E 002°20'113.2
2017-Apr-24 12:29N 51°34' E 002°18'613.3
2017-Apr-24 12:00N 51°29' E 002°12'612.4
2017-Apr-24 11:30N 51°23' E 002°09'612.7
2017-Apr-24 11:00N 51°17' E 002°07'612.2
2017-Apr-24 10:30N 51°13' E 001°60'713.7
2017-Apr-24 10:00N 51°09' E 001°50'713.9
2017-Apr-24 09:30N 51°05' E 001°42'714.0
2017-Apr-24 09:01N 50°59' E 001°35'713.4
2017-Apr-24 08:31N 50°54' E 001°28'5711.2
2017-Apr-24 03:27N 50°22' E 000°15'510.8
2017-Apr-24 03:01N 50°21' E 000°08'510.5
2017-Apr-24 02:31N 50°19' W 000°00'510.3
2017-Apr-24 02:01N 50°18' W 000°08'510.1
2017-Apr-24 01:31N 50°17' W 000°15'5 9.7
2017-Apr-24 01:01N 50°15' W 000°23'5 9.5
2017-Apr-24 00:31N 50°14' W 000°30'5 9.4
2017-Apr-24 00:00N 50°13' W 000°37'5 9.2
2017-Apr-23 23:30N 50°12' W 000°44'5 9.3
2017-Apr-23 23:00N 50°11' W 000°51'7 9.7
2017-Apr-23 22:18N 50°09' W 001°01'410.1
2017-Apr-23 21:54N 50°08' W 001°07'610.8
2017-Apr-23 21:19N 50°06' W 001°17'3212.7
2017-Apr-23 18:50N 49°59' W 002°05'614.0
2017-Apr-23 18:26N 49°57' W 002°13'614.0
2017-Apr-23 18:01N 49°56' W 002°22'813.8
2017-Apr-23 17:26N 49°54' W 002°34'613.4
2017-Apr-23 16:58N 49°52' W 002°43'613.1
2017-Apr-23 16:31N 49°50' W 002°52'1112.8
2017-Apr-23 15:41N 49°47' W 003°08'212.6
2017-Apr-23 15:29N 49°46' W 003°11'612.4
2017-Apr-23 15:01N 49°45' W 003°20'1212.3
2017-Apr-23 14:00N 49°39' W 003°37'612.1
2017-Apr-23 13:31N 49°35' W 003°45'611.9
2017-Apr-23 13:01N 49°32' W 003°52'611.6
2017-Apr-23 12:30N 49°29' W 003°59'611.5
2017-Apr-23 11:59N 49°25' W 004°07'611.4
2017-Apr-23 11:29N 49°22' W 004°15'611.2
2017-Apr-23 10:56N 49°19' W 004°22'4610.3
2017-Apr-23 06:31N 48°53' W 005°21'210.1
2017-Apr-23 06:20N 48°53' W 005°23'310.1
2017-Apr-23 06:00N 48°51' W 005°27'510.2
2017-Apr-23 05:28N 48°48' W 005°34'2310.4
2017-Apr-23 03:16N 48°28' W 005°51'19110.8
2017-Apr-22 09:39N 45°39' W 008°00'36410.4
2017-Apr-20 22:36N 39°44' W 009°51'111.3
2017-Apr-20 22:31N 39°43' W 009°51'2211.0
2017-Apr-20 20:32N 39°21' W 009°51'011.2
2017-Apr-20 20:30N 39°21' W 009°51'510.7
2017-Apr-20 20:01N 39°15' W 009°51'510.6
2017-Apr-20 19:31N 39°10' W 009°52'510.7
2017-Apr-20 19:00N 39°05' W 009°52'510.6
2017-Apr-20 18:30N 38°59' W 009°52'510.7
2017-Apr-20 18:00N 38°54' W 009°52'510.8
2017-Apr-20 17:31N 38°49' W 009°52'510.8
2017-Apr-20 17:01N 38°43' W 009°52'510.7
2017-Apr-20 16:30N 38°38' W 009°50'510.8
2017-Apr-20 16:01N 38°33' W 009°48'611.1
2017-Apr-20 15:31N 38°28' W 009°47'611.6
2017-Apr-20 15:01N 38°22' W 009°45'612.0
2017-Apr-20 14:31N 38°16' W 009°44'1212.0
2017-Apr-20 13:31N 38°04' W 009°40'711.6
2017-Apr-20 12:57N 37°58' W 009°38'1711.7
2017-Apr-20 11:27N 37°41' W 009°34'511.8
2017-Apr-20 11:00N 37°36' W 009°33'  
2017-Apr-17 15:33N 33°39' W 007°34'1 7.1
2017-Apr-17 15:21N 33°41' W 007°35'2 6.3
2017-Apr-17 14:59N 33°41' W 007°37'0 0.6
2017-Apr-17 14:18N 33°41' W 007°38'0 0.0
2017-Apr-17 13:27N 33°41' W 007°38'0 0.0
2017-Apr-17 12:57N 33°41' W 007°38'0 0.0
2017-Apr-17 12:30N 33°41' W 007°38'0 0.0
2017-Apr-17 11:57N 33°41' W 007°38'0 0.0
2017-Apr-17 11:27N 33°41' W 007°38'  

Dump ship's entire track history